Kolobrzeg, Poland
Current Conditions -  °F | °C
As of 2:20 PM on Saturday 25 Oct 2014 (Local Time) from EDAH Reporting Station
Broken Clouds Broken Clouds  
Wind Chill: 36°   Ceiling: 1000
Heat Index: 43°   Visibility: 4mi
Dew Point: 37°   Wind: 14mph
Humidity: 81%   Direction: 160°SSE
Pressure: 30.12"   Gusts: NA
Location:  54.19°N, 15.57°E
Report Text: EDAH 251220Z 16012KT 7000 BKN010 06/03 Q1020
Loading
Personal Weather Stations






























Interactive Weather Map
Tropical Storm Tracking
New forecast layout! Learn more

10-Day Weather Forecast

Advertisements
Track Severe Weather on mobile